Time;durP1;ratioP1;P1;durP2;ratioP2;P2;SDS_P1;SDS_P2;PMS_P1;PMS_P2;Temp;Humidity;BMP_temperature;BMP_pressure;BME280_temperature;BME280_humidity;BME280_pressure;Samples;Min_cycle;Max_cycle;Signal;HPM_P1;HPM_P2
2023/08/10 00:00:56;;;;;;;12.48;2.58;;;;;;;12.97;90.05;101602.53;4986503;28;20193;-46
2023/08/10 00:03:22;;;;;;;8.15;2.38;;;;;;;13.07;89.74;101608.47;4982808;28;20255;-43
2023/08/10 00:05:47;;;;;;;11.10;2.30;;;;;;;13.14;89.96;101611.81;4983057;28;20181;-46
2023/08/10 00:08:13;;;;;;;8.95;1.88;;;;;;;13.07;89.94;101608.47;4985117;28;20209;-43
2023/08/10 00:10:38;;;;;;;7.07;1.65;;;;;;;13.13;90.00;101610.06;4987059;28;20200;-43
2023/08/10 00:13:04;;;;;;;7.47;2.00;;;;;;;12.99;89.99;101602.50;4986638;28;20231;-45
2023/08/10 00:15:29;;;;;;;12.93;2.80;;;;;;;13.01;89.95;101611.41;4982517;28;20193;-44
2023/08/10 00:17:56;;;;;;;12.85;2.45;;;;;;;12.98;89.97;101598.91;4985273;28;20210;-45
2023/08/10 00:20:21;;;;;;;8.25;1.88;;;;;;;13.07;90.10;101613.84;4986981;28;20192;-44
2023/08/10 00:22:47;;;;;;;10.02;2.15;;;;;;;13.14;90.19;101614.50;4982006;28;20185;-43
2023/08/10 00:25:12;;;;;;;11.40;2.10;;;;;;;13.10;89.95;101615.56;4979477;28;20301;-49
2023/08/10 00:27:38;;;;;;;9.55;2.67;;;;;;;12.96;90.29;101624.13;4980474;28;20205;-44
2023/08/10 00:30:05;;;;;;;9.60;1.92;;;;;;;13.00;90.14;101623.06;4984768;28;20176;-43
2023/08/10 00:32:31;;;;;;;13.18;2.50;;;;;;;13.00;90.25;101625.75;4968141;28;20220;-46
2023/08/10 00:34:58;;;;;;;11.65;2.35;;;;;;;12.99;90.04;101615.94;4986811;28;20173;-43
2023/08/10 00:37:23;;;;;;;12.10;2.38;;;;;;;12.99;90.25;101619.50;4980867;28;20204;-46
2023/08/10 00:39:49;;;;;;;11.95;2.85;;;;;;;12.93;90.10;101625.09;4979175;28;20252;-46
2023/08/10 00:42:15;;;;;;;15.60;2.30;;;;;;;12.94;90.38;101620.59;4984678;28;20245;-43
2023/08/10 00:44:40;;;;;;;10.02;1.70;;;;;;;13.01;90.16;101637.41;4984848;28;20243;-43
2023/08/10 00:47:07;;;;;;;13.90;2.70;;;;;;;13.03;90.15;101625.69;4971479;28;20268;-49
2023/08/10 00:49:33;;;;;;;9.75;2.17;;;;;;;12.98;90.21;101630.31;4977066;28;20210;-45
2023/08/10 00:51:59;;;;;;;13.40;2.15;;;;;;;12.77;90.55;101634.66;4985508;28;20644;-45
2023/08/10 00:54:25;;;;;;;14.13;2.47;;;;;;;12.86;91.16;101641.53;4984879;28;20652;-43
2023/08/10 00:56:52;;;;;;;10.90;2.25;;;;;;;12.92;91.19;101638.59;4984837;28;20243;-51
2023/08/10 00:59:18;;;;;;;10.68;2.05;;;;;;;12.89;91.22;101649.47;4967119;28;20181;-44
2023/08/10 01:01:44;;;;;;;13.18;2.65;;;;;;;12.86;91.23;101639.72;4987136;28;20675;-45
2023/08/10 01:04:10;;;;;;;14.07;2.70;;;;;;;12.87;91.15;101640.59;4983631;28;20526;-44
2023/08/10 01:06:56;;;;;;;8.88;2.17;;;;;;;12.99;91.69;101646.41;4974802;28;20192;-49
2023/08/10 01:09:27;;;;;;;10.73;2.70;;;;;;;12.89;91.72;101653.03;4984354;28;20536;-44
2023/08/10 01:12:05;;;;;;;11.57;2.50;;;;;;;12.89;91.86;101654.84;4970154;28;20264;-43
2023/08/10 01:14:39;;;;;;;11.32;2.35;;;;;;;12.94;91.91;101656.47;4986215;28;20181;-44
2023/08/10 01:17:12;;;;;;;12.48;2.30;;;;;;;13.02;91.78;101660.69;4975867;28;20699;-43
2023/08/10 01:19:41;;;;;;;7.25;1.92;;;;;;;12.89;91.87;101665.63;4986775;28;20185;-43
2023/08/10 01:22:25;;;;;;;8.70;2.10;;;;;;;12.90;92.59;101659.28;4979874;28;20199;-43
2023/08/10 01:25:04;;;;;;;13.52;2.22;;;;;;;12.94;92.98;101674.41;4967448;28;20233;-45
2023/08/10 01:27:31;;;;;;;5.85;1.80;;;;;;;13.01;93.31;101681.34;4981190;28;20209;-44
2023/08/10 01:29:57;;;;;;;13.23;2.47;;;;;;;13.05;93.39;101688.34;4970182;28;20930;-42
2023/08/10 01:32:22;;;;;;;10.57;2.22;;;;;;;12.89;94.02;101687.13;4986882;28;20283;-42
2023/08/10 01:34:50;;;;;;;10.15;2.22;;;;;;;12.73;94.46;101687.66;4980258;28;20266;-43
2023/08/10 01:37:17;;;;;;;11.48;2.25;;;;;;;12.80;95.41;101693.69;4985587;28;20197;-44
2023/08/10 01:39:43;;;;;;;14.27;2.25;;;;;;;12.70;95.44;101679.69;4983458;28;20229;-43
2023/08/10 01:42:08;;;;;;;9.13;1.92;;;;;;;12.72;95.97;101685.88;4982464;28;20688;-44
2023/08/10 01:44:33;;;;;;;12.25;2.40;;;;;;;12.75;96.23;101685.78;4982969;28;20276;-42
2023/08/10 01:47:03;;;;;;;11.80;2.13;;;;;;;12.76;96.65;101687.53;4982705;28;20177;-43
2023/08/10 01:49:33;;;;;;;11.25;2.50;;;;;;;12.69;96.53;101677.06;4971694;28;20182;-43
2023/08/10 01:52:05;;;;;;;9.98;2.25;;;;;;;12.74;96.79;101684.00;4985229;28;20209;-46
2023/08/10 01:54:33;;;;;;;8.32;2.22;;;;;;;12.84;96.81;101679.22;4984309;28;20230;-43
2023/08/10 01:56:58;;;;;;;7.53;2.03;;;;;;;12.85;96.98;101672.03;4987132;28;20628;-43
2023/08/10 01:59:24;;;;;;;7.28;2.25;;;;;;;12.84;96.87;101670.28;4972579;28;20268;-43
2023/08/10 02:01:50;;;;;;;8.38;2.08;;;;;;;12.79;96.87;101667.75;4971194;28;20197;-45
2023/08/10 02:04:16;;;;;;;11.48;1.98;;;;;;;12.76;96.97;101673.22;4984115;28;20277;-46
2023/08/10 02:06:43;;;;;;;10.13;2.22;;;;;;;12.85;97.04;101669.34;4984123;28;20188;-44
2023/08/10 02:09:09;;;;;;;8.02;1.63;;;;;;;12.91;96.90;101674.50;4972942;28;20679;-42
2023/08/10 02:11:34;;;;;;;10.75;2.17;;;;;;;12.88;97.11;101680.88;4967110;28;20647;-46
2023/08/10 02:14:00;;;;;;;8.10;2.10;;;;;;;12.95;97.31;101677.03;4986843;28;20730;-44
2023/08/10 02:16:25;;;;;;;10.38;1.95;;;;;;;12.94;97.41;101677.97;4972615;28;20190;-44
2023/08/10 02:18:51;;;;;;;10.43;2.65;;;;;;;12.78;97.75;101677.59;4971676;28;20200;-44
2023/08/10 02:21:16;;;;;;;11.10;2.38;;;;;;;12.78;98.07;101684.81;4977027;28;20196;-45
2023/08/10 02:23:42;;;;;;;11.25;2.15;;;;;;;12.76;98.42;101684.84;4963929;28;20182;-43
2023/08/10 02:26:07;;;;;;;12.65;2.33;;;;;;;12.82;98.57;101690.97;4966928;28;20192;-43
2023/08/10 02:28:33;;;;;;;14.52;2.67;;;;;;;12.82;98.70;101685.59;4965350;28;20579;-43
2023/08/10 02:30:59;;;;;;;11.77;2.22;;;;;;;12.72;99.10;101685.88;4970448;28;20185;-43
2023/08/10 02:33:24;;;;;;;9.20;2.50;;;;;;;12.64;99.48;101684.38;4975374;28;20644;-43
2023/08/10 02:35:51;;;;;;;12.10;2.70;;;;;;;12.68;99.80;101686.03;4978513;28;20185;-42
2023/08/10 02:38:16;;;;;;;9.43;2.03;;;;;;;12.70;100.00;101674.31;4985616;28;20560;-43
2023/08/10 02:40:42;;;;;;;10.10;2.08;;;;;;;12.65;100.00;101673.56;4986920;28;20248;-48
2023/08/10 02:43:07;;;;;;;14.45;2.70;;;;;;;12.67;100.00;101670.84;4973263;28;20755;-42
2023/08/10 02:45:35;;;;;;;7.95;2.33;;;;;;;12.74;100.00;101675.94;4990605;28;20177;-48
2023/08/10 02:48:01;;;;;;;9.90;2.22;;;;;;;12.78;100.00;101685.66;4975893;28;20255;-45
2023/08/10 02:50:27;;;;;;;13.95;2.55;;;;;;;12.66;100.00;101679.81;4984362;28;20177;-46
2023/08/10 02:52:52;;;;;;;12.93;2.30;;;;;;;12.65;100.00;101688.84;4977403;28;20184;-42
2023/08/10 02:55:18;;;;;;;14.88;3.03;;;;;;;12.63;100.00;101680.81;4975247;28;20182;-44
2023/08/10 02:57:43;;;;;;;12.50;2.55;;;;;;;12.66;100.00;101669.97;4983956;28;20247;-44
2023/08/10 03:00:12;;;;;;;10.07;2.20;;;;;;;12.63;100.00;101680.81;4977176;28;20186;-43
2023/08/10 03:02:39;;;;;;;7.15;2.35;;;;;;;12.67;100.00;101676.22;4971352;28;20202;-43
2023/08/10 03:05:07;;;;;;;10.23;2.28;;;;;;;12.68;100.00;101672.59;4987526;28;20244;-47
2023/08/10 03:07:33;;;;;;;12.63;2.22;;;;;;;12.64;100.00;101673.63;4988070;28;20207;-46
2023/08/10 03:09:59;;;;;;;9.52;2.40;;;;;;;12.48;100.00;101684.88;4976109;28;20174;-43
2023/08/10 03:12:26;;;;;;;12.23;2.15;;;;;;;12.54;100.00;101682.00;4973820;28;20272;-45
2023/08/10 03:14:52;;;;;;;9.38;2.20;;;;;;;12.62;100.00;101688.94;4971555;28;20256;-45
2023/08/10 03:17:18;;;;;;;12.60;2.25;;;;;;;12.46;100.00;101683.16;4977639;28;20209;-42
2023/08/10 03:19:44;;;;;;;9.25;2.38;;;;;;;12.52;100.00;101688.34;4977620;28;20182;-45
2023/08/10 03:22:10;;;;;;;11.85;2.45;;;;;;;12.48;100.00;101692.94;4973721;28;20201;-44
2023/08/10 03:24:36;;;;;;;10.95;2.35;;;;;;;12.41;100.00;101690.50;4974253;28;20182;-46
2023/08/10 03:27:02;;;;;;;15.82;2.50;;;;;;;12.50;100.00;101692.91;4971556;28;20272;-45
2023/08/10 03:29:28;;;;;;;13.07;2.33;;;;;;;12.50;100.00;101698.28;4979342;28;20719;-46
2023/08/10 03:31:54;;;;;;;13.93;2.72;;;;;;;12.55;100.00;101699.00;4975783;28;20178;-43
2023/08/10 03:34:19;;;;;;;6.15;1.65;;;;;;;12.65;100.00;101699.59;4987387;28;20190;-44
2023/08/10 03:36:48;;;;;;;13.95;2.38;;;;;;;12.66;100.00;101698.66;4986709;28;20189;-44
2023/08/10 03:39:13;;;;;;;13.93;2.78;;;;;;;12.51;100.00;101703.59;4973272;28;20181;-44
2023/08/10 03:41:39;;;;;;;9.43;1.98;;;;;;;12.49;100.00;101697.41;4989445;28;20287;-45
2023/08/10 03:44:05;;;;;;;11.73;2.28;;;;;;;12.48;100.00;101700.13;4974329;28;20178;-43
2023/08/10 03:46:30;;;;;;;12.05;2.28;;;;;;;12.51;100.00;101713.50;4975480;28;20663;-44
2023/08/10 03:48:56;;;;;;;8.30;2.25;;;;;;;12.57;100.00;101713.25;4969016;28;20197;-46
2023/08/10 03:51:21;;;;;;;9.63;2.35;;;;;;;12.62;100.00;101718.53;4965732;28;20698;-46
2023/08/10 03:53:47;;;;;;;10.50;2.13;;;;;;;12.62;100.00;101721.22;4986521;28;20177;-43
2023/08/10 03:56:12;;;;;;;12.25;1.98;;;;;;;12.54;100.00;101726.81;4972737;28;20178;-44
2023/08/10 03:58:38;;;;;;;7.90;1.90;;;;;;;12.52;100.00;101726.84;4969347;28;20201;-45
2023/08/10 04:01:06;;;;;;;9.68;2.40;;;;;;;12.44;100.00;101717.28;4977212;28;20291;-44
2023/08/10 04:03:33;;;;;;;9.13;1.88;;;;;;;12.45;100.00;101717.25;4974370;28;20209;-46
2023/08/10 04:05:59;;;;;;;11.18;2.15;;;;;;;12.46;100.00;101718.09;4988035;28;20174;-43
2023/08/10 04:08:25;;;;;;;11.07;2.03;;;;;;;12.46;100.00;101726.19;4987639;28;20213;-47
2023/08/10 04:10:50;;;;;;;15.18;3.20;;;;;;;12.39;100.00;101720.13;4978067;28;20173;-47
2023/08/10 04:13:17;;;;;;;9.80;2.35;;;;;;;12.46;100.00;101727.09;4988275;28;20185;-47
2023/08/10 04:15:42;;;;;;;8.07;2.00;;;;;;;12.52;100.00;101723.31;4973332;28;20190;-43
2023/08/10 04:18:08;;;;;;;13.80;2.00;;;;;;;12.51;100.00;101718.88;4974504;28;20297;-44
2023/08/10 04:20:33;;;;;;;9.55;2.55;;;;;;;12.56;100.00;101725.84;4971714;28;20217;-43
2023/08/10 04:22:59;;;;;;;10.68;2.00;;;;;;;12.61;100.00;101736.44;4978392;28;20213;-42
2023/08/10 04:25:25;;;;;;;11.15;2.35;;;;;;;12.50;100.00;101723.34;4985148;28;20193;-43
2023/08/10 04:27:51;;;;;;;17.10;2.97;;;;;;;12.41;100.00;101730.81;4983225;28;20784;-42
2023/08/10 04:30:17;;;;;;;11.45;2.03;;;;;;;12.50;100.00;101727.84;4983392;28;20560;-44
2023/08/10 04:32:43;;;;;;;8.63;2.00;;;;;;;12.56;100.00;101731.22;4986618;28;20200;-43
2023/08/10 04:35:09;;;;;;;12.02;2.13;;;;;;;12.61;100.00;101738.25;4987236;28;20216;-43
2023/08/10 04:37:35;;;;;;;11.15;2.08;;;;;;;12.51;100.00;101727.81;4977037;28;20688;-47
2023/08/10 04:40:00;;;;;;;11.48;2.45;;;;;;;12.54;100.00;101724.13;4986081;28;20258;-43
2023/08/10 04:42:26;;;;;;;7.22;2.20;;;;;;;12.57;100.00;101727.63;4985768;28;20201;-44
2023/08/10 04:44:51;;;;;;;9.18;2.10;;;;;;;12.54;100.00;101722.31;4985750;28;20193;-46
2023/08/10 04:47:16;;;;;;;7.10;1.83;;;;;;;12.57;100.00;101735.69;4983900;28;20213;-44
2023/08/10 04:49:42;;;;;;;11.50;2.30;;;;;;;12.59;100.00;101740.97;4984860;28;20189;-45
2023/08/10 04:52:07;;;;;;;7.68;1.88;;;;;;;12.65;100.00;101729.16;4980478;28;20259;-48
2023/08/10 04:54:33;;;;;;;8.80;1.70;;;;;;;12.60;100.00;101744.56;4967210;28;20185;-44
2023/08/10 04:56:58;;;;;;;7.68;1.90;;;;;;;12.73;100.00;101748.63;4985357;28;20213;-42
2023/08/10 04:59:24;;;;;;;9.38;2.20;;;;;;;12.65;100.00;101748.84;4985394;28;20220;-44
2023/08/10 05:01:49;;;;;;;8.63;1.75;;;;;;;12.74;100.00;101747.69;4976110;28;20213;-45
2023/08/10 05:04:15;;;;;;;12.23;2.20;;;;;;;12.75;100.00;101744.94;4985405;28;20190;-46
2023/08/10 05:06:41;;;;;;;13.10;1.95;;;;;;;12.69;100.00;101747.84;4982565;28;20173;-43
2023/08/10 05:09:07;;;;;;;9.32;1.77;;;;;;;12.78;100.00;101754.72;4987633;28;20382;-47
2023/08/10 05:11:33;;;;;;;11.85;2.38;;;;;;;12.84;100.00;101738.38;4984706;28;20196;-45
2023/08/10 05:13:59;;;;;;;16.35;2.22;;;;;;;12.97;100.00;101745.13;4987454;28;20181;-43
2023/08/10 05:16:24;;;;;;;5.63;1.90;;;;;;;13.04;100.00;101751.16;4983062;28;20534;-44
2023/08/10 05:18:50;;;;;;;10.50;2.25;;;;;;;12.92;100.00;101744.41;4973612;28;20197;-46
2023/08/10 05:21:16;;;;;;;7.32;1.52;;;;;;;13.06;100.00;101743.94;4988000;28;20628;-48
2023/08/10 05:23:41;;;;;;;9.85;2.08;;;;;;;12.97;100.00;101744.25;4983698;28;20707;-43
2023/08/10 05:26:08;;;;;;;7.93;1.80;;;;;;;12.96;100.00;101754.09;4985702;28;20200;-43
2023/08/10 05:28:34;;;;;;;8.85;1.90;;;;;;;12.96;100.00;101746.03;4985843;28;20202;-43
2023/08/10 05:30:59;;;;;;;10.65;2.25;;;;;;;13.03;100.00;101752.13;4987149;28;20187;-44
2023/08/10 05:33:25;;;;;;;11.27;2.00;;;;;;;13.09;100.00;101742.94;4970191;28;20200;-46
2023/08/10 05:35:50;;;;;;;11.50;2.10;;;;;;;13.11;100.00;101741.06;4985568;28;20198;-44
2023/08/10 05:38:15;;;;;;;10.57;1.88;;;;;;;13.19;100.00;101737.19;4987646;28;20252;-44
2023/08/10 05:40:41;;;;;;;8.63;1.90;;;;;;;13.27;100.00;101742.31;4971417;28;20224;-48
2023/08/10 05:43:07;;;;;;;9.50;2.80;;;;;;;13.21;100.00;101745.22;4977488;28;20195;-45
2023/08/10 05:45:33;;;;;;;9.00;1.75;;;;;;;13.16;100.00;101745.38;4987375;28;20185;-43
2023/08/10 05:47:58;;;;;;;6.28;1.30;;;;;;;13.26;100.00;101748.63;4983363;28;20315;-48
2023/08/10 05:50:24;;;;;;;8.40;1.90;;;;;;;13.11;100.00;101747.34;4977855;28;20199;-48
2023/08/10 05:52:49;;;;;;;11.27;2.25;;;;;;;13.14;100.00;101752.63;4986691;28;20653;-45
2023/08/10 05:55:15;;;;;;;10.00;2.13;;;;;;;13.22;100.00;101755.03;4982255;28;20273;-44
2023/08/10 05:57:41;;;;;;;10.20;2.10;;;;;;;13.07;100.00;101760.94;4984110;28;20714;-49
2023/08/10 06:00:09;;;;;;;7.93;1.63;;;;;;;13.09;100.00;101759.94;4982968;28;20224;-48
2023/08/10 06:02:41;;;;;;;8.07;2.20;;;;;;;13.09;100.00;101765.34;4987658;28;20215;-47
2023/08/10 06:05:07;;;;;;;9.85;2.20;;;;;;;13.05;100.00;101769.06;4969048;28;20182;-45
2023/08/10 06:07:33;;;;;;;11.05;2.33;;;;;;;13.19;100.00;101769.47;4984657;28;20214;-43
2023/08/10 06:09:59;;;;;;;8.30;1.98;;;;;;;13.27;100.00;101771.03;4988547;28;20236;-43
2023/08/10 06:12:24;;;;;;;7.75;1.65;;;;;;;13.41;100.00;101776.84;4986749;28;20186;-42
2023/08/10 06:14:50;;;;;;;10.40;2.05;;;;;;;13.37;100.00;101781.44;4986777;28;20268;-42
2023/08/10 06:17:15;;;;;;;8.23;1.92;;;;;;;13.58;100.00;101782.53;4985329;28;20412;-43
2023/08/10 06:19:51;;;;;;;10.52;2.25;;;;;;;13.55;100.00;101771.84;4985756;28;20182;-44
2023/08/10 06:22:17;;;;;;;8.65;2.10;;;;;;;13.67;100.00;101769.66;4988198;28;20231;-45
2023/08/10 06:24:43;;;;;;;11.13;3.15;;;;;;;13.83;100.00;101780.75;4990245;28;20189;-44
2023/08/10 06:27:09;;;;;;;10.57;2.20;;;;;;;13.88;100.00;101779.63;4983513;28;20244;-45
2023/08/10 06:29:35;;;;;;;6.35;1.73;;;;;;;13.99;100.00;101774.75;4986326;28;20666;-42
2023/08/10 06:32:09;;;;;;;5.82;1.80;;;;;;;14.08;99.81;101778.94;4984693;28;20272;-44
2023/08/10 06:34:35;;;;;;;9.63;2.05;;;;;;;13.90;99.51;101780.47;4987174;28;20188;-44
2023/08/10 06:37:00;;;;;;;9.52;2.10;;;;;;;13.90;99.23;101783.16;4988578;28;20644;-48
2023/08/10 06:39:27;;;;;;;6.57;1.55;;;;;;;13.87;99.10;101775.19;4988199;28;20649;-44
2023/08/10 06:41:53;;;;;;;11.55;2.53;;;;;;;13.96;98.74;101772.16;4975249;28;20694;-43
2023/08/10 06:44:19;;;;;;;7.95;1.80;;;;;;;14.13;97.94;101771.53;4982954;28;20586;-43
2023/08/10 06:46:45;;;;;;;7.30;2.00;;;;;;;14.27;97.38;101773.69;4988608;28;20185;-42
2023/08/10 06:49:11;;;;;;;8.77;2.20;;;;;;;14.34;96.92;101775.22;4977324;28;20223;-42
2023/08/10 06:51:37;;;;;;;10.88;2.00;;;;;;;14.32;96.58;101778.91;4980932;28;20202;-48
2023/08/10 06:54:02;;;;;;;13.13;2.20;;;;;;;14.30;95.97;101772.69;4986996;28;20185;-43
2023/08/10 06:56:28;;;;;;;10.25;2.00;;;;;;;14.35;95.56;101774.28;4987152;28;20205;-43
2023/08/10 06:58:53;;;;;;;9.63;2.42;;;;;;;14.42;95.56;101774.91;4975549;28;20561;-43
2023/08/10 07:01:19;;;;;;;7.57;1.77;;;;;;;14.42;95.34;101783.88;4985769;28;20186;-45
2023/08/10 07:03:44;;;;;;;10.13;2.17;;;;;;;14.41;95.02;101779.44;4965228;28;20292;-42
2023/08/10 07:06:10;;;;;;;10.43;2.05;;;;;;;14.56;95.14;101786.09;4988616;28;20660;-42
2023/08/10 07:08:35;;;;;;;9.00;2.10;;;;;;;14.63;94.57;101775.94;4986119;28;20207;-46
2023/08/10 07:11:03;;;;;;;6.15;1.70;;;;;;;14.70;93.37;101773.88;4979750;28;20246;-43
2023/08/10 07:13:29;;;;;;;13.05;2.22;;;;;;;14.87;92.57;101775.84;4987346;28;20540;-44
2023/08/10 07:15:55;;;;;;;9.35;2.35;;;;;;;15.01;91.57;101777.03;4980736;28;20189;-43
2023/08/10 07:18:21;;;;;;;10.63;1.75;;;;;;;15.35;90.87;101772.94;4971978;28;20209;-43
2023/08/10 07:20:46;;;;;;;10.80;1.98;;;;;;;15.42;89.42;101777.13;4984738;28;20217;-44
2023/08/10 07:23:14;;;;;;;12.13;2.38;;;;;;;15.57;88.43;101769.31;4984254;28;20744;-41
2023/08/10 07:25:39;;;;;;;6.65;1.90;;;;;;;15.64;87.16;101759.97;4986398;28;20524;-43
2023/08/10 07:28:06;;;;;;;11.55;2.15;;;;;;;15.47;86.09;101759.84;4986713;28;20201;-43
2023/08/10 07:30:31;;;;;;;7.97;1.90;;;;;;;15.43;85.81;101764.47;4984319;28;20192;-43
2023/08/10 07:32:57;;;;;;;14.23;2.25;;;;;;;15.48;85.11;101770.59;4987814;28;20546;-45
2023/08/10 07:35:23;;;;;;;10.27;1.80;;;;;;;15.39;84.73;101771.84;4985967;28;20192;-43
2023/08/10 07:37:49;;;;;;;8.57;2.28;;;;;;;15.18;85.31;101773.66;4985427;28;20209;-43
2023/08/10 07:40:15;;;;;;;7.95;1.98;;;;;;;15.87;85.67;101777.88;4985652;28;20200;-44
2023/08/10 07:42:40;;;;;;;8.70;1.83;;;;;;;15.86;84.82;101781.53;4988126;28;20418;-43
2023/08/10 07:45:09;;;;;;;9.93;2.20;;;;;;;16.61;83.19;101767.19;4988165;28;20189;-44
2023/08/10 07:47:35;;;;;;;12.88;2.05;;;;;;;16.89;80.05;101741.50;4981692;28;20206;-44
2023/08/10 07:50:01;;;;;;;12.60;2.10;;;;;;;17.13;78.08;101733.97;4983743;28;20192;-43
2023/08/10 07:52:26;;;;;;;11.23;2.17;;;;;;;17.90;76.56;101716.38;4984558;28;20185;-46
2023/08/10 07:54:52;;;;;;;14.10;2.75;;;;;;;16.56;75.21;101712.44;4969808;28;20272;-43
2023/08/10 07:57:17;;;;;;;9.48;1.80;;;;;;;16.76;75.04;101722.25;4983825;28;20233;-43
2023/08/10 07:59:43;;;;;;;9.23;2.28;;;;;;;16.37;75.28;101725.97;4983053;28;20240;-47
2023/08/10 08:02:08;;;;;;;10.55;2.13;;;;;;;16.17;76.50;101750.38;4985468;28;20189;-43
2023/08/10 08:04:33;;;;;;;7.20;1.80;;;;;;;15.83;77.77;101750.13;4983914;28;20174;-46
2023/08/10 08:06:59;;;;;;;9.95;1.85;;;;;;;15.31;78.81;101760.50;4986319;28;20193;-48
2023/08/10 08:09:24;;;;;;;12.73;2.28;;;;;;;16.39;78.60;101759.22;4987265;28;20201;-42
2023/08/10 08:11:50;;;;;;;7.57;2.33;;;;;;;17.20;77.66;101756.19;4982096;28;20212;-45
2023/08/10 08:14:15;;;;;;;6.82;1.90;;;;;;;17.65;75.20;101738.50;4982395;28;20652;-45
2023/08/10 08:16:41;;;;;;;9.40;1.83;;;;;;;18.07;72.86;101713.63;4985147;28;20193;-43
2023/08/10 08:19:06;;;;;;;8.80;1.65;;;;;;;18.53;71.12;101697.44;4982313;28;20566;-43
2023/08/10 08:21:32;;;;;;;8.73;1.70;;;;;;;18.23;69.65;101674.78;4985001;28;20554;-44
2023/08/10 08:23:58;;;;;;;10.68;1.60;;;;;;;17.34;70.16;101699.50;4979916;28;20519;-43
2023/08/10 08:26:24;;;;;;;11.57;1.90;;;;;;;16.73;69.36;101692.66;4985971;28;20193;-42
2023/08/10 08:28:50;;;;;;;6.00;1.65;;;;;;;17.02;68.83;101685.78;4968453;28;20205;-45
2023/08/10 08:31:16;;;;;;;15.45;2.20;;;;;;;18.03;67.61;101681.34;4981679;28;20214;-44
2023/08/10 08:33:42;;;;;;;9.35;1.98;;;;;;;17.81;66.38;101665.34;4984332;28;20209;-44
2023/08/10 08:36:08;;;;;;;7.82;2.05;;;;;;;17.58;66.61;101669.31;4964237;28;20189;-44
2023/08/10 08:38:34;;;;;;;8.18;1.70;;;;;;;17.73;67.58;101689.28;4979468;28;20221;-45
2023/08/10 08:41:05;;;;;;;8.75;1.88;;;;;;;17.95;66.98;101670.03;4982008;28;20186;-44
2023/08/10 08:43:32;;;;;;;9.55;2.08;;;;;;;18.02;67.11;101685.88;4983288;28;20236;-46
2023/08/10 08:45:58;;;;;;;7.05;1.38;;;;;;;18.57;65.77;101675.56;4982627;28;20173;-45
2023/08/10 08:48:27;;;;;;;7.47;1.60;;;;;;;18.31;65.07;101665.25;4980431;28;20605;-46
2023/08/10 08:50:53;;;;;;;10.15;1.73;;;;;;;18.34;63.88;101653.31;4982152;28;20186;-44
2023/08/10 08:53:19;;;;;;;9.68;1.83;;;;;;;18.84;63.21;101649.50;4981687;28;20181;-45
2023/08/10 08:55:46;;;;;;;6.68;1.65;;;;;;;19.03;62.91;101646.56;4981634;28;20247;-46
2023/08/10 08:58:14;;;;;;;10.05;1.85;;;;;;;19.13;61.99;101650.47;4981202;28;20209;-46
2023/08/10 09:00:46;;;;;;;7.05;1.60;;;;;;;18.62;61.47;101641.75;4980567;28;20187;-46
2023/08/10 09:03:11;;;;;;;8.95;1.70;;;;;;;17.80;62.60;101640.09;4980593;28;20205;-43
2023/08/10 09:05:37;;;;;;;7.88;1.60;;;;;;;17.47;63.24;101653.63;4981131;28;20189;-45
2023/08/10 09:08:03;;;;;;;7.47;1.50;;;;;;;17.47;64.36;101667.16;4984718;28;20212;-44
2023/08/10 09:10:29;;;;;;;7.30;1.75;;;;;;;17.84;64.10;101667.91;4983778;28;20557;-46
2023/08/10 09:12:55;;;;;;;9.30;1.67;;;;;;;18.70;63.44;101672.03;4979068;28;20401;-46
2023/08/10 09:15:21;;;;;;;8.27;1.63;;;;;;;19.05;64.15;101669.09;4980553;28;20183;-45
2023/08/10 09:17:52;;;;;;;6.07;1.42;;;;;;;18.57;62.96;101659.28;4982663;28;20209;-46
2023/08/10 09:20:26;;;;;;;6.47;1.60;;;;;;;17.92;63.80;101654.81;4964361;28;20189;-46
2023/08/10 09:22:55;;;;;;;10.55;1.77;;;;;;;18.19;63.03;101665.06;4976782;28;20549;-45
2023/08/10 09:25:20;;;;;;;7.13;1.58;;;;;;;19.03;61.83;101660.16;4984884;28;20181;-46
2023/08/10 09:27:47;;;;;;;4.93;1.58;;;;;;;19.60;60.93;101643.03;4981894;28;20212;-46
2023/08/10 09:30:14;;;;;;;11.85;1.83;;;;;;;19.44;59.90;101631.38;4977837;28;20328;-44
2023/08/10 09:32:40;;;;;;;6.00;1.48;;;;;;;18.50;60.66;101621.63;4967624;28;20198;-44
2023/08/10 09:35:17;;;;;;;7.05;1.70;;;;;;;17.95;62.42;101640.22;4972583;28;20193;-46
2023/08/10 09:37:43;;;;;;;6.97;1.88;;;;;;;18.02;63.47;101660.63;4978770;28;20216;-47
2023/08/10 09:40:11;;;;;;;6.30;1.60;;;;;;;17.44;63.29;101659.22;4980290;28;20196;-49
2023/08/10 09:42:39;;;;;;;9.90;2.25;;;;;;;17.11;64.21;101670.03;4986653;28;20213;-47
2023/08/10 09:45:08;;;;;;;7.55;1.40;;;;;;;16.98;65.21;101681.47;4983166;28;20185;-45
2023/08/10 09:47:36;;;;;;;11.07;2.42;;;;;;;17.21;65.30;101677.59;4976986;28;20288;-48
2023/08/10 09:50:05;;;;;;;5.88;1.50;;;;;;;16.94;65.24;101677.16;4984363;28;20204;-48
2023/08/10 09:52:32;;;;;;;9.30;1.60;;;;;;;17.59;65.41;101682.78;4980790;28;20186;-47
2023/08/10 09:54:58;;;;;;;11.63;1.63;;;;;;;18.24;64.98;101682.84;4982954;28;20228;-47
2023/08/10 09:57:25;;;;;;;5.78;1.23;;;;;;;18.72;61.69;101652.94;4976992;28;20238;-47
2023/08/10 09:59:52;;;;;;;8.27;1.25;;;;;;;19.39;59.38;101619.94;4984100;28;20185;-48
2023/08/10 10:02:22;;;;;;;8.00;1.40;;;;;;;19.03;57.62;101596.81;4982877;28;20223;-46
2023/08/10 10:04:48;;;;;;;6.25;1.10;;;;;;;19.74;56.58;101591.44;4974742;28;20196;-48
2023/08/10 10:07:16;;;;;;;4.22;1.35;;;;;;;19.92;56.17;101591.22;4954854;28;20209;-49
2023/08/10 10:09:45;;;;;;;8.23;1.50;;;;;;;20.37;56.82;101597.25;4984452;28;20710;-45
2023/08/10 10:12:12;;;;;;;7.57;1.33;;;;;;;20.33;55.91;101587.56;4980464;28;20182;-46
2023/08/10 10:14:40;;;;;;;8.75;1.65;;;;;;;19.76;55.65;101577.72;4983013;28;20189;-48
2023/08/10 10:17:06;;;;;;;5.47;1.40;;;;;;;19.50;55.94;101572.09;4979196;28;20248;-48
2023/08/10 10:19:33;;;;;;;5.90;1.25;;;;;;;19.07;56.12;101587.50;4985752;28;20193;-48
2023/08/10 10:22:00;;;;;;;4.65;1.60;;;;;;;18.05;58.15;101598.91;4973731;28;20243;-47
2023/08/10 10:24:31;;;;;;;5.93;1.48;;;;;;;17.89;59.07;101627.88;4981751;28;20268;-46
2023/08/10 10:27:08;;;;;;;4.03;1.45;;;;;;;17.84;59.67;101629.97;4982723;28;20239;-48
2023/08/10 10:29:36;;;;;;;10.70;1.70;;;;;;;18.11;60.17;101646.53;4982386;28;20231;-46
2023/08/10 10:32:11;;;;;;;8.98;1.48;;;;;;;18.53;59.07;101643.16;4982510;28;20252;-48
2023/08/10 10:34:38;;;;;;;6.88;1.40;;;;;;;18.85;59.03;101636.84;4980978;28;20189;-48
2023/08/10 10:37:20;;;;;;;6.38;1.35;;;;;;;19.07;57.73;101620.09;4985387;28;20188;-48
2023/08/10 10:39:50;;;;;;;8.60;1.48;;;;;;;19.68;56.98;101613.53;4982449;28;20626;-47
2023/08/10 10:42:17;;;;;;;8.32;1.50;;;;;;;19.86;56.20;101613.34;4981974;28;20232;-48
2023/08/10 10:45:07;;;;;;;7.15;1.38;;;;;;;19.85;53.98;101576.25;4987409;28;20185;-47
2023/08/10 10:47:33;;;;;;;2.95;1.30;;;;;;;19.23;54.20;101576.56;4985715;28;20695;-46
2023/08/10 10:49:59;;;;;;;4.50;1.23;;;;;;;18.76;56.46;101597.50;4986578;28;20236;-47
2023/08/10 10:52:37;;;;;;;6.05;1.60;;;;;;;18.44;56.51;101607.56;4987857;28;20200;-47
2023/08/10 10:55:05;;;;;;;7.13;1.38;;;;;;;18.80;56.15;101607.22;4988551;28;20212;-48
2023/08/10 10:57:31;;;;;;;6.90;1.52;;;;;;;19.16;54.45;101584.22;4982010;28;20212;-46
2023/08/10 10:59:58;;;;;;;4.25;1.20;;;;;;;19.50;53.26;101574.81;4965848;28;20178;-48
2023/08/10 11:02:33;;;;;;;3.33;1.20;;;;;;;19.52;52.69;101558.38;4976264;28;20225;-46
2023/08/10 11:04:59;;;;;;;4.43;1.10;;;;;;;20.08;51.66;101558.41;4986520;28;20931;-46
2023/08/10 11:07:24;;;;;;;5.75;1.23;;;;;;;19.86;52.34;101561.69;4985428;28;20707;-46
2023/08/10 11:09:51;;;;;;;7.90;1.88;;;;;;;18.89;53.48;101565.94;4988238;28;20196;-48
2023/08/10 11:12:17;;;;;;;3.95;1.33;;;;;;;18.69;54.14;101597.00;4986891;28;20181;-45
2023/08/10 11:14:42;;;;;;;5.65;1.60;;;;;;;19.03;54.81;101594.97;4986416;28;20185;-45
2023/08/10 11:17:09;;;;;;;4.45;1.10;;;;;;;19.50;54.40;101601.09;4986542;28;20363;-47